sensor_id;sensor_type;location;lat;lon;timestamp;temperature;humidity
4556;DHT22;2290;48.674;9.018;2023-12-22T00:01:06;7.20;99.90
4556;DHT22;2290;48.674;9.018;2023-12-22T00:03:32;7.30;99.90
4556;DHT22;2290;48.674;9.018;2023-12-22T00:05:59;7.20;99.90
4556;DHT22;2290;48.674;9.018;2023-12-22T00:08:25;7.20;99.90
4556;DHT22;2290;48.674;9.018;2023-12-22T00:10:50;7.20;99.90
4556;DHT22;2290;48.674;9.018;2023-12-22T00:13:16;7.10;99.90
4556;DHT22;2290;48.674;9.018;2023-12-22T00:15:41;7.20;99.90
4556;DHT22;2290;48.674;9.018;2023-12-22T00:18:10;7.20;99.90
4556;DHT22;2290;48.674;9.018;2023-12-22T00:20:36;7.30;99.90
4556;DHT22;2290;48.674;9.018;2023-12-22T00:23:01;7.30;99.90
4556;DHT22;2290;48.674;9.018;2023-12-22T00:25:27;7.30;99.90
4556;DHT22;2290;48.674;9.018;2023-12-22T00:27:52;7.30;99.90
4556;DHT22;2290;48.674;9.018;2023-12-22T00:30:18;7.30;99.90
4556;DHT22;2290;48.674;9.018;2023-12-22T00:32:45;7.30;99.90
4556;DHT22;2290;48.674;9.018;2023-12-22T00:35:10;7.20;99.90
4556;DHT22;2290;48.674;9.018;2023-12-22T00:37:36;7.20;99.90
4556;DHT22;2290;48.674;9.018;2023-12-22T00:40:02;7.30;99.90
4556;DHT22;2290;48.674;9.018;2023-12-22T00:42:30;7.20;99.90
4556;DHT22;2290;48.674;9.018;2023-12-22T00:44:56;7.30;99.90
4556;DHT22;2290;48.674;9.018;2023-12-22T00:47:21;7.30;99.90
4556;DHT22;2290;48.674;9.018;2023-12-22T00:49:47;7.30;99.90
4556;DHT22;2290;48.674;9.018;2023-12-22T00:52:12;7.30;99.90
4556;DHT22;2290;48.674;9.018;2023-12-22T00:54:38;7.30;99.90
4556;DHT22;2290;48.674;9.018;2023-12-22T00:57:04;7.30;99.90
4556;DHT22;2290;48.674;9.018;2023-12-22T00:59:32;7.30;99.90
4556;DHT22;2290;48.674;9.018;2023-12-22T01:01:58;7.30;99.90
4556;DHT22;2290;48.674;9.018;2023-12-22T01:04:23;7.40;99.90
4556;DHT22;2290;48.674;9.018;2023-12-22T01:06:49;7.30;99.90
4556;DHT22;2290;48.674;9.018;2023-12-22T01:09:15;7.30;99.90
4556;DHT22;2290;48.674;9.018;2023-12-22T01:11:41;7.40;99.90
4556;DHT22;2290;48.674;9.018;2023-12-22T01:14:07;7.30;99.90
4556;DHT22;2290;48.674;9.018;2023-12-22T01:16:33;7.30;99.90
4556;DHT22;2290;48.674;9.018;2023-12-22T01:18:58;7.30;99.90
4556;DHT22;2290;48.674;9.018;2023-12-22T01:21:24;7.30;99.90
4556;DHT22;2290;48.674;9.018;2023-12-22T01:23:49;7.30;99.90
4556;DHT22;2290;48.674;9.018;2023-12-22T01:26:15;7.30;99.90
4556;DHT22;2290;48.674;9.018;2023-12-22T01:28:40;7.30;99.90
4556;DHT22;2290;48.674;9.018;2023-12-22T01:31:06;7.30;99.90
4556;DHT22;2290;48.674;9.018;2023-12-22T01:33:31;7.30;99.90
4556;DHT22;2290;48.674;9.018;2023-12-22T01:35:58;7.30;99.90
4556;DHT22;2290;48.674;9.018;2023-12-22T01:38:24;7.30;99.90
4556;DHT22;2290;48.674;9.018;2023-12-22T01:40:49;7.30;99.90
4556;DHT22;2290;48.674;9.018;2023-12-22T01:43:15;7.30;99.90
4556;DHT22;2290;48.674;9.018;2023-12-22T01:45:42;7.30;99.90
4556;DHT22;2290;48.674;9.018;2023-12-22T01:48:10;7.20;99.90
4556;DHT22;2290;48.674;9.018;2023-12-22T01:50:36;7.10;99.90
4556;DHT22;2290;48.674;9.018;2023-12-22T01:53:02;7.10;99.90
4556;DHT22;2290;48.674;9.018;2023-12-22T01:55:28;7.00;99.90
4556;DHT22;2290;48.674;9.018;2023-12-22T01:57:54;7.10;99.90
4556;DHT22;2290;48.674;9.018;2023-12-22T02:00:20;7.00;99.90
4556;DHT22;2290;48.674;9.018;2023-12-22T02:02:47;7.10;99.90
4556;DHT22;2290;48.674;9.018;2023-12-22T02:05:13;7.20;99.90
4556;DHT22;2290;48.674;9.018;2023-12-22T02:07:40;7.20;99.90
4556;DHT22;2290;48.674;9.018;2023-12-22T02:10:07;7.20;99.90
4556;DHT22;2290;48.674;9.018;2023-12-22T02:12:34;7.20;99.90
4556;DHT22;2290;48.674;9.018;2023-12-22T02:15:00;7.20;99.90
4556;DHT22;2290;48.674;9.018;2023-12-22T02:17:36;7.10;99.90
4556;DHT22;2290;48.674;9.018;2023-12-22T02:20:04;7.00;99.90
4556;DHT22;2290;48.674;9.018;2023-12-22T02:22:30;7.10;99.90
4556;DHT22;2290;48.674;9.018;2023-12-22T02:24:55;7.10;99.90
4556;DHT22;2290;48.674;9.018;2023-12-22T02:27:28;7.10;99.90
4556;DHT22;2290;48.674;9.018;2023-12-22T02:32:35;7.10;99.90
4556;DHT22;2290;48.674;9.018;2023-12-22T02:35:04;7.10;99.90
4556;DHT22;2290;48.674;9.018;2023-12-22T02:37:32;7.10;99.90
4556;DHT22;2290;48.674;9.018;2023-12-22T02:40:02;7.10;99.90
4556;DHT22;2290;48.674;9.018;2023-12-22T02:42:38;7.10;99.90
4556;DHT22;2290;48.674;9.018;2023-12-22T02:45:12;7.20;99.90
4556;DHT22;2290;48.674;9.018;2023-12-22T02:47:38;7.20;99.90
4556;DHT22;2290;48.674;9.018;2023-12-22T02:50:04;7.20;99.90
4556;DHT22;2290;48.674;9.018;2023-12-22T02:52:29;7.20;99.90
4556;DHT22;2290;48.674;9.018;2023-12-22T02:54:57;7.20;99.90
4556;DHT22;2290;48.674;9.018;2023-12-22T02:57:22;7.20;99.90
4556;DHT22;2290;48.674;9.018;2023-12-22T02:59:48;7.20;99.90
4556;DHT22;2290;48.674;9.018;2023-12-22T03:02:13;7.30;99.90
4556;DHT22;2290;48.674;9.018;2023-12-22T03:04:40;7.20;99.90
4556;DHT22;2290;48.674;9.018;2023-12-22T03:07:07;7.30;99.90
4556;DHT22;2290;48.674;9.018;2023-12-22T03:09:33;7.20;99.90
4556;DHT22;2290;48.674;9.018;2023-12-22T03:11:59;7.20;99.90
4556;DHT22;2290;48.674;9.018;2023-12-22T03:14:31;7.20;99.90
4556;DHT22;2290;48.674;9.018;2023-12-22T03:17:00;7.20;99.90
4556;DHT22;2290;48.674;9.018;2023-12-22T03:19:26;7.20;99.90
4556;DHT22;2290;48.674;9.018;2023-12-22T03:21:52;7.30;99.90
4556;DHT22;2290;48.674;9.018;2023-12-22T03:24:17;7.20;99.90
4556;DHT22;2290;48.674;9.018;2023-12-22T03:26:48;7.10;99.90
4556;DHT22;2290;48.674;9.018;2023-12-22T03:29:13;7.10;99.90
4556;DHT22;2290;48.674;9.018;2023-12-22T03:31:39;7.10;99.90
4556;DHT22;2290;48.674;9.018;2023-12-22T03:34:05;7.10;99.90
4556;DHT22;2290;48.674;9.018;2023-12-22T03:36:31;7.10;99.90
4556;DHT22;2290;48.674;9.018;2023-12-22T03:38:56;7.10;99.90
4556;DHT22;2290;48.674;9.018;2023-12-22T03:41:22;7.10;99.90
4556;DHT22;2290;48.674;9.018;2023-12-22T03:43:47;7.10;99.90
4556;DHT22;2290;48.674;9.018;2023-12-22T03:46:13;7.20;99.90
4556;DHT22;2290;48.674;9.018;2023-12-22T03:48:39;7.10;99.90
4556;DHT22;2290;48.674;9.018;2023-12-22T03:51:04;7.20;99.90
4556;DHT22;2290;48.674;9.018;2023-12-22T03:53:30;7.20;99.90
4556;DHT22;2290;48.674;9.018;2023-12-22T03:55:55;7.20;99.90
4556;DHT22;2290;48.674;9.018;2023-12-22T03:58:21;7.20;99.90
4556;DHT22;2290;48.674;9.018;2023-12-22T04:00:46;7.20;99.90
4556;DHT22;2290;48.674;9.018;2023-12-22T04:03:13;7.20;99.90
4556;DHT22;2290;48.674;9.018;2023-12-22T04:05:38;7.30;99.90
4556;DHT22;2290;48.674;9.018;2023-12-22T04:08:05;7.20;99.90
4556;DHT22;2290;48.674;9.018;2023-12-22T04:10:32;7.20;99.90
4556;DHT22;2290;48.674;9.018;2023-12-22T04:12:57;7.20;99.90
4556;DHT22;2290;48.674;9.018;2023-12-22T04:15:23;7.30;99.90
4556;DHT22;2290;48.674;9.018;2023-12-22T04:17:48;7.30;99.90
4556;DHT22;2290;48.674;9.018;2023-12-22T04:20:15;7.30;99.90
4556;DHT22;2290;48.674;9.018;2023-12-22T04:22:41;7.30;99.90
4556;DHT22;2290;48.674;9.018;2023-12-22T04:25:07;7.30;99.90
4556;DHT22;2290;48.674;9.018;2023-12-22T04:27:33;7.30;99.90
4556;DHT22;2290;48.674;9.018;2023-12-22T04:29:59;7.20;99.90
4556;DHT22;2290;48.674;9.018;2023-12-22T04:32:24;7.00;99.90
4556;DHT22;2290;48.674;9.018;2023-12-22T04:34:50;6.80;99.90
4556;DHT22;2290;48.674;9.018;2023-12-22T04:37:16;6.70;99.90
4556;DHT22;2290;48.674;9.018;2023-12-22T04:39:41;6.60;99.90
4556;DHT22;2290;48.674;9.018;2023-12-22T04:42:07;6.60;99.90
4556;DHT22;2290;48.674;9.018;2023-12-22T04:44:32;6.60;99.90
4556;DHT22;2290;48.674;9.018;2023-12-22T04:46:58;6.50;99.90
4556;DHT22;2290;48.674;9.018;2023-12-22T04:49:23;6.50;99.90
4556;DHT22;2290;48.674;9.018;2023-12-22T04:51:49;6.50;99.90
4556;DHT22;2290;48.674;9.018;2023-12-22T04:54:14;6.60;99.90
4556;DHT22;2290;48.674;9.018;2023-12-22T04:56:40;6.50;99.90
4556;DHT22;2290;48.674;9.018;2023-12-22T04:59:05;6.60;99.90
4556;DHT22;2290;48.674;9.018;2023-12-22T05:01:31;6.50;99.90
4556;DHT22;2290;48.674;9.018;2023-12-22T05:03:56;6.60;99.90
4556;DHT22;2290;48.674;9.018;2023-12-22T05:06:22;6.60;99.90
4556;DHT22;2290;48.674;9.018;2023-12-22T05:08:48;6.60;99.90
4556;DHT22;2290;48.674;9.018;2023-12-22T05:11:13;6.70;99.90
4556;DHT22;2290;48.674;9.018;2023-12-22T05:13:39;6.60;99.90
4556;DHT22;2290;48.674;9.018;2023-12-22T05:16:06;6.60;99.90
4556;DHT22;2290;48.674;9.018;2023-12-22T05:18:31;6.70;99.90
4556;DHT22;2290;48.674;9.018;2023-12-22T05:20:57;6.70;99.90
4556;DHT22;2290;48.674;9.018;2023-12-22T05:23:22;6.80;99.90
4556;DHT22;2290;48.674;9.018;2023-12-22T05:25:49;6.80;99.90
4556;DHT22;2290;48.674;9.018;2023-12-22T05:28:15;6.80;99.90
4556;DHT22;2290;48.674;9.018;2023-12-22T05:30:41;6.80;99.90
4556;DHT22;2290;48.674;9.018;2023-12-22T05:33:06;6.80;99.90
4556;DHT22;2290;48.674;9.018;2023-12-22T05:35:32;6.80;99.90
4556;DHT22;2290;48.674;9.018;2023-12-22T05:37:58;6.90;99.90
4556;DHT22;2290;48.674;9.018;2023-12-22T05:40:23;6.90;99.90
4556;DHT22;2290;48.674;9.018;2023-12-22T05:42:49;6.90;99.90
4556;DHT22;2290;48.674;9.018;2023-12-22T05:45:14;6.90;99.90
4556;DHT22;2290;48.674;9.018;2023-12-22T05:47:40;7.00;99.90
4556;DHT22;2290;48.674;9.018;2023-12-22T05:50:06;7.00;99.90
4556;DHT22;2290;48.674;9.018;2023-12-22T05:52:32;7.10;99.90
4556;DHT22;2290;48.674;9.018;2023-12-22T05:54:58;7.10;99.90
4556;DHT22;2290;48.674;9.018;2023-12-22T05:57:25;7.10;99.90
4556;DHT22;2290;48.674;9.018;2023-12-22T05:59:51;7.10;99.90
4556;DHT22;2290;48.674;9.018;2023-12-22T06:02:16;6.90;99.90
4556;DHT22;2290;48.674;9.018;2023-12-22T06:04:42;6.80;99.90
4556;DHT22;2290;48.674;9.018;2023-12-22T06:07:10;6.70;99.90
4556;DHT22;2290;48.674;9.018;2023-12-22T06:09:36;6.60;99.90
4556;DHT22;2290;48.674;9.018;2023-12-22T06:12:02;6.60;99.90
4556;DHT22;2290;48.674;9.018;2023-12-22T06:14:29;6.50;99.90
4556;DHT22;2290;48.674;9.018;2023-12-22T06:16:57;6.50;99.90
4556;DHT22;2290;48.674;9.018;2023-12-22T06:19:23;6.50;99.90
4556;DHT22;2290;48.674;9.018;2023-12-22T06:21:50;6.50;99.90
4556;DHT22;2290;48.674;9.018;2023-12-22T06:24:16;6.70;99.90
4556;DHT22;2290;48.674;9.018;2023-12-22T06:26:42;6.80;99.90
4556;DHT22;2290;48.674;9.018;2023-12-22T06:29:07;6.90;99.90
4556;DHT22;2290;48.674;9.018;2023-12-22T06:31:33;7.00;99.90
4556;DHT22;2290;48.674;9.018;2023-12-22T06:33:58;7.00;99.90
4556;DHT22;2290;48.674;9.018;2023-12-22T06:36:27;6.90;99.90
4556;DHT22;2290;48.674;9.018;2023-12-22T06:38:53;6.80;99.90
4556;DHT22;2290;48.674;9.018;2023-12-22T06:41:26;6.80;99.90
4556;DHT22;2290;48.674;9.018;2023-12-22T06:43:52;6.70;99.90
4556;DHT22;2290;48.674;9.018;2023-12-22T06:46:20;6.70;99.90
4556;DHT22;2290;48.674;9.018;2023-12-22T06:48:47;6.60;99.90
4556;DHT22;2290;48.674;9.018;2023-12-22T06:51:30;6.60;99.90
4556;DHT22;2290;48.674;9.018;2023-12-22T06:53:57;6.50;99.90
4556;DHT22;2290;48.674;9.018;2023-12-22T06:56:25;6.40;99.90
4556;DHT22;2290;48.674;9.018;2023-12-22T06:58:52;6.30;99.90
4556;DHT22;2290;48.674;9.018;2023-12-22T07:01:27;6.30;99.90
4556;DHT22;2290;48.674;9.018;2023-12-22T07:03:52;6.30;99.90
4556;DHT22;2290;48.674;9.018;2023-12-22T07:06:19;6.30;99.90
4556;DHT22;2290;48.674;9.018;2023-12-22T07:08:46;6.30;99.90
4556;DHT22;2290;48.674;9.018;2023-12-22T07:11:23;6.30;99.90
4556;DHT22;2290;48.674;9.018;2023-12-22T07:13:49;6.30;99.90
4556;DHT22;2290;48.674;9.018;2023-12-22T07:16:15;6.30;99.90
4556;DHT22;2290;48.674;9.018;2023-12-22T07:18:40;6.30;99.90
4556;DHT22;2290;48.674;9.018;2023-12-22T07:21:06;6.30;99.90
4556;DHT22;2290;48.674;9.018;2023-12-22T07:23:32;6.40;99.90
4556;DHT22;2290;48.674;9.018;2023-12-22T07:25:58;6.40;99.90
4556;DHT22;2290;48.674;9.018;2023-12-22T07:28:23;6.50;99.90
4556;DHT22;2290;48.674;9.018;2023-12-22T07:30:49;6.50;99.90
4556;DHT22;2290;48.674;9.018;2023-12-22T07:33:15;6.50;99.90
4556;DHT22;2290;48.674;9.018;2023-12-22T07:35:40;6.50;99.90
4556;DHT22;2290;48.674;9.018;2023-12-22T07:38:06;6.50;99.90
4556;DHT22;2290;48.674;9.018;2023-12-22T07:40:31;6.50;99.90
4556;DHT22;2290;48.674;9.018;2023-12-22T07:42:57;6.50;99.90
4556;DHT22;2290;48.674;9.018;2023-12-22T07:45:23;6.40;99.90
4556;DHT22;2290;48.674;9.018;2023-12-22T07:47:48;6.40;99.90
4556;DHT22;2290;48.674;9.018;2023-12-22T07:50:14;6.40;99.90
4556;DHT22;2290;48.674;9.018;2023-12-22T07:52:41;6.40;99.90
4556;DHT22;2290;48.674;9.018;2023-12-22T07:55:07;6.40;99.90
4556;DHT22;2290;48.674;9.018;2023-12-22T07:57:37;6.40;99.90
4556;DHT22;2290;48.674;9.018;2023-12-22T08:00:04;6.40;99.90
4556;DHT22;2290;48.674;9.018;2023-12-22T08:02:30;6.40;99.90
4556;DHT22;2290;48.674;9.018;2023-12-22T08:04:56;6.40;99.90
4556;DHT22;2290;48.674;9.018;2023-12-22T08:07:22;6.40;99.90
4556;DHT22;2290;48.674;9.018;2023-12-22T08:09:47;6.40;99.90
4556;DHT22;2290;48.674;9.018;2023-12-22T08:12:13;6.50;99.90
4556;DHT22;2290;48.674;9.018;2023-12-22T08:14:40;6.60;99.90
4556;DHT22;2290;48.674;9.018;2023-12-22T08:17:07;6.70;99.90
4556;DHT22;2290;48.674;9.018;2023-12-22T08:19:33;6.70;99.90
4556;DHT22;2290;48.674;9.018;2023-12-22T08:21:58;6.80;99.90
4556;DHT22;2290;48.674;9.018;2023-12-22T08:24:25;6.90;99.90
4556;DHT22;2290;48.674;9.018;2023-12-22T08:26:51;6.90;99.90
4556;DHT22;2290;48.674;9.018;2023-12-22T08:29:17;6.90;99.90
4556;DHT22;2290;48.674;9.018;2023-12-22T08:31:44;7.00;99.90
4556;DHT22;2290;48.674;9.018;2023-12-22T08:34:10;7.00;99.90
4556;DHT22;2290;48.674;9.018;2023-12-22T08:36:36;6.90;99.90
4556;DHT22;2290;48.674;9.018;2023-12-22T08:39:01;6.90;99.90
4556;DHT22;2290;48.674;9.018;2023-12-22T08:41:27;6.90;99.90
4556;DHT22;2290;48.674;9.018;2023-12-22T08:43:53;6.80;99.90
4556;DHT22;2290;48.674;9.018;2023-12-22T08:46:18;6.80;99.90
4556;DHT22;2290;48.674;9.018;2023-12-22T08:48:44;6.80;99.90
4556;DHT22;2290;48.674;9.018;2023-12-22T08:51:09;6.80;99.90
4556;DHT22;2290;48.674;9.018;2023-12-22T08:53:36;6.80;99.90
4556;DHT22;2290;48.674;9.018;2023-12-22T08:56:05;6.80;99.90
4556;DHT22;2290;48.674;9.018;2023-12-22T08:58:35;6.80;99.90
4556;DHT22;2290;48.674;9.018;2023-12-22T09:01:01;6.80;99.90
4556;DHT22;2290;48.674;9.018;2023-12-22T09:03:26;6.80;99.90
4556;DHT22;2290;48.674;9.018;2023-12-22T09:05:52;6.80;99.90
4556;DHT22;2290;48.674;9.018;2023-12-22T09:08:19;6.90;99.90
4556;DHT22;2290;48.674;9.018;2023-12-22T09:10:44;7.00;99.90
4556;DHT22;2290;48.674;9.018;2023-12-22T09:13:10;7.00;99.90
4556;DHT22;2290;48.674;9.018;2023-12-22T09:15:36;7.00;99.90
4556;DHT22;2290;48.674;9.018;2023-12-22T09:18:02;7.00;99.90
4556;DHT22;2290;48.674;9.018;2023-12-22T09:20:29;7.10;99.90
4556;DHT22;2290;48.674;9.018;2023-12-22T09:22:56;7.00;99.90
4556;DHT22;2290;48.674;9.018;2023-12-22T09:25:23;7.00;99.90
4556;DHT22;2290;48.674;9.018;2023-12-22T09:27:49;7.00;99.90
4556;DHT22;2290;48.674;9.018;2023-12-22T09:30:15;7.10;99.90
4556;DHT22;2290;48.674;9.018;2023-12-22T09:32:41;7.10;99.90
4556;DHT22;2290;48.674;9.018;2023-12-22T09:35:06;7.10;99.90
4556;DHT22;2290;48.674;9.018;2023-12-22T09:37:33;7.10;99.90
4556;DHT22;2290;48.674;9.018;2023-12-22T09:40:00;7.10;99.90
4556;DHT22;2290;48.674;9.018;2023-12-22T09:42:26;7.20;99.90
4556;DHT22;2290;48.674;9.018;2023-12-22T09:44:55;7.20;99.90
4556;DHT22;2290;48.674;9.018;2023-12-22T09:47:22;7.20;99.90
4556;DHT22;2290;48.674;9.018;2023-12-22T09:49:59;7.20;99.90
4556;DHT22;2290;48.674;9.018;2023-12-22T09:52:25;7.20;99.90
4556;DHT22;2290;48.674;9.018;2023-12-22T09:54:54;7.20;99.90
4556;DHT22;2290;48.674;9.018;2023-12-22T09:57:22;7.30;99.90
4556;DHT22;2290;48.674;9.018;2023-12-22T09:59:51;7.30;99.90
4556;DHT22;2290;48.674;9.018;2023-12-22T10:02:17;7.30;99.90
4556;DHT22;2290;48.674;9.018;2023-12-22T10:04:43;7.30;99.90
4556;DHT22;2290;48.674;9.018;2023-12-22T10:07:09;7.30;99.90
4556;DHT22;2290;48.674;9.018;2023-12-22T10:09:36;7.40;99.90
4556;DHT22;2290;48.674;9.018;2023-12-22T10:12:03;7.40;99.90
4556;DHT22;2290;48.674;9.018;2023-12-22T10:14:31;7.40;99.90
4556;DHT22;2290;48.674;9.018;2023-12-22T10:16:57;7.40;99.90
4556;DHT22;2290;48.674;9.018;2023-12-22T10:19:22;7.40;99.90
4556;DHT22;2290;48.674;9.018;2023-12-22T10:21:51;7.50;99.90
4556;DHT22;2290;48.674;9.018;2023-12-22T10:24:42;7.50;99.90
4556;DHT22;2290;48.674;9.018;2023-12-22T10:27:09;7.50;99.90
4556;DHT22;2290;48.674;9.018;2023-12-22T10:29:35;7.50;99.90
4556;DHT22;2290;48.674;9.018;2023-12-22T10:32:02;7.60;99.90
4556;DHT22;2290;48.674;9.018;2023-12-22T10:34:28;7.50;99.90
4556;DHT22;2290;48.674;9.018;2023-12-22T10:36:54;7.50;99.90
4556;DHT22;2290;48.674;9.018;2023-12-22T10:39:20;7.50;99.90
4556;DHT22;2290;48.674;9.018;2023-12-22T10:41:46;7.50;99.90
4556;DHT22;2290;48.674;9.018;2023-12-22T10:44:13;7.50;99.90
4556;DHT22;2290;48.674;9.018;2023-12-22T10:46:39;7.50;99.90
4556;DHT22;2290;48.674;9.018;2023-12-22T10:49:05;7.50;99.90
4556;DHT22;2290;48.674;9.018;2023-12-22T10:51:32;7.40;99.90
4556;DHT22;2290;48.674;9.018;2023-12-22T10:53:58;7.50;99.90
4556;DHT22;2290;48.674;9.018;2023-12-22T10:56:25;7.40;99.90
4556;DHT22;2290;48.674;9.018;2023-12-22T10:58:51;7.40;99.90
4556;DHT22;2290;48.674;9.018;2023-12-22T11:01:18;7.40;99.90
4556;DHT22;2290;48.674;9.018;2023-12-22T11:03:48;7.40;99.90
4556;DHT22;2290;48.674;9.018;2023-12-22T11:06:15;7.30;99.90
4556;DHT22;2290;48.674;9.018;2023-12-22T11:08:43;7.30;99.90
4556;DHT22;2290;48.674;9.018;2023-12-22T11:11:39;7.30;99.90
4556;DHT22;2290;48.674;9.018;2023-12-22T11:14:05;7.20;99.90
4556;DHT22;2290;48.674;9.018;2023-12-22T11:16:34;7.10;99.90
4556;DHT22;2290;48.674;9.018;2023-12-22T11:19:01;7.10;99.90
4556;DHT22;2290;48.674;9.018;2023-12-22T11:21:28;7.10;99.90
4556;DHT22;2290;48.674;9.018;2023-12-22T11:23:57;7.10;99.90
4556;DHT22;2290;48.674;9.018;2023-12-22T11:26:24;7.10;99.90
4556;DHT22;2290;48.674;9.018;2023-12-22T11:28:51;7.00;99.90
4556;DHT22;2290;48.674;9.018;2023-12-22T11:31:18;6.90;99.90
4556;DHT22;2290;48.674;9.018;2023-12-22T11:33:46;6.90;99.90
4556;DHT22;2290;48.674;9.018;2023-12-22T11:36:16;6.80;99.90
4556;DHT22;2290;48.674;9.018;2023-12-22T11:38:43;6.80;99.90
4556;DHT22;2290;48.674;9.018;2023-12-22T11:41:26;6.90;99.90
4556;DHT22;2290;48.674;9.018;2023-12-22T11:43:56;6.80;99.90
4556;DHT22;2290;48.674;9.018;2023-12-22T11:46:24;6.80;99.90
4556;DHT22;2290;48.674;9.018;2023-12-22T11:48:51;6.80;99.90
4556;DHT22;2290;48.674;9.018;2023-12-22T11:51:18;6.80;99.90
4556;DHT22;2290;48.674;9.018;2023-12-22T11:53:44;6.80;99.90
4556;DHT22;2290;48.674;9.018;2023-12-22T11:56:12;6.80;99.90
4556;DHT22;2290;48.674;9.018;2023-12-22T11:58:47;6.80;99.90
4556;DHT22;2290;48.674;9.018;2023-12-22T12:01:40;6.80;99.90
4556;DHT22;2290;48.674;9.018;2023-12-22T12:04:06;6.80;99.90
4556;DHT22;2290;48.674;9.018;2023-12-22T12:06:33;6.70;99.90
4556;DHT22;2290;48.674;9.018;2023-12-22T12:09:00;6.80;99.90
4556;DHT22;2290;48.674;9.018;2023-12-22T12:14:21;6.80;99.90
4556;DHT22;2290;48.674;9.018;2023-12-22T12:16:48;6.70;99.90
4556;DHT22;2290;48.674;9.018;2023-12-22T12:19:15;6.70;99.90
4556;DHT22;2290;48.674;9.018;2023-12-22T12:21:42;6.70;99.90
4556;DHT22;2290;48.674;9.018;2023-12-22T12:24:08;6.70;99.90
4556;DHT22;2290;48.674;9.018;2023-12-22T12:26:34;6.70;99.90
4556;DHT22;2290;48.674;9.018;2023-12-22T12:29:01;6.70;99.90
4556;DHT22;2290;48.674;9.018;2023-12-22T12:31:37;6.70;99.90
4556;DHT22;2290;48.674;9.018;2023-12-22T12:34:07;6.80;99.90
4556;DHT22;2290;48.674;9.018;2023-12-22T12:36:35;6.70;99.90
4556;DHT22;2290;48.674;9.018;2023-12-22T12:39:08;6.80;99.90
4556;DHT22;2290;48.674;9.018;2023-12-22T12:41:39;6.80;99.90
4556;DHT22;2290;48.674;9.018;2023-12-22T12:44:06;6.80;99.90
4556;DHT22;2290;48.674;9.018;2023-12-22T12:46:37;6.90;99.90
4556;DHT22;2290;48.674;9.018;2023-12-22T12:49:06;6.90;99.90
4556;DHT22;2290;48.674;9.018;2023-12-22T12:51:39;6.90;99.90
4556;DHT22;2290;48.674;9.018;2023-12-22T12:54:06;6.90;99.90
4556;DHT22;2290;48.674;9.018;2023-12-22T12:56:43;6.90;99.90
4556;DHT22;2290;48.674;9.018;2023-12-22T12:59:09;7.00;99.90
4556;DHT22;2290;48.674;9.018;2023-12-22T13:01:42;7.00;99.90
4556;DHT22;2290;48.674;9.018;2023-12-22T13:04:09;7.10;99.90
4556;DHT22;2290;48.674;9.018;2023-12-22T13:06:48;7.10;99.90
4556;DHT22;2290;48.674;9.018;2023-12-22T13:09:16;7.10;99.90
4556;DHT22;2290;48.674;9.018;2023-12-22T13:11:45;7.10;99.90
4556;DHT22;2290;48.674;9.018;2023-12-22T13:14:26;7.20;99.90
4556;DHT22;2290;48.674;9.018;2023-12-22T13:16:56;7.20;99.90
4556;DHT22;2290;48.674;9.018;2023-12-22T13:19:25;7.30;99.90
4556;DHT22;2290;48.674;9.018;2023-12-22T13:21:54;7.30;99.90
4556;DHT22;2290;48.674;9.018;2023-12-22T13:24:20;7.30;99.90
4556;DHT22;2290;48.674;9.018;2023-12-22T13:27:04;7.40;99.90
4556;DHT22;2290;48.674;9.018;2023-12-22T13:29:42;7.40;99.90
4556;DHT22;2290;48.674;9.018;2023-12-22T13:32:15;7.50;99.90
4556;DHT22;2290;48.674;9.018;2023-12-22T13:34:53;7.50;99.90
4556;DHT22;2290;48.674;9.018;2023-12-22T13:37:19;7.50;99.90
4556;DHT22;2290;48.674;9.018;2023-12-22T13:39:45;7.50;99.90
4556;DHT22;2290;48.674;9.018;2023-12-22T13:42:17;7.60;99.90
4556;DHT22;2290;48.674;9.018;2023-12-22T13:44:47;7.60;99.90
4556;DHT22;2290;48.674;9.018;2023-12-22T13:47:18;7.70;99.90
4556;DHT22;2290;48.674;9.018;2023-12-22T13:49:45;7.70;99.90
4556;DHT22;2290;48.674;9.018;2023-12-22T13:52:30;7.70;99.90
4556;DHT22;2290;48.674;9.018;2023-12-22T13:55:20;7.80;99.90
4556;DHT22;2290;48.674;9.018;2023-12-22T13:57:48;7.90;99.90
4556;DHT22;2290;48.674;9.018;2023-12-22T14:02:48;8.00;99.90
4556;DHT22;2290;48.674;9.018;2023-12-22T14:05:19;8.10;99.90
4556;DHT22;2290;48.674;9.018;2023-12-22T14:07:47;8.10;99.90
4556;DHT22;2290;48.674;9.018;2023-12-22T14:10:14;8.10;99.90
4556;DHT22;2290;48.674;9.018;2023-12-22T14:12:40;8.20;99.90
4556;DHT22;2290;48.674;9.018;2023-12-22T14:15:10;8.10;99.90
4556;DHT22;2290;48.674;9.018;2023-12-22T14:17:36;8.20;99.90
4556;DHT22;2290;48.674;9.018;2023-12-22T14:20:02;8.20;99.90
4556;DHT22;2290;48.674;9.018;2023-12-22T14:22:27;8.30;99.90
4556;DHT22;2290;48.674;9.018;2023-12-22T14:24:53;8.30;99.90
4556;DHT22;2290;48.674;9.018;2023-12-22T14:27:19;8.20;99.90
4556;DHT22;2290;48.674;9.018;2023-12-22T14:29:48;8.30;99.90
4556;DHT22;2290;48.674;9.018;2023-12-22T14:32:15;8.30;99.90
4556;DHT22;2290;48.674;9.018;2023-12-22T14:34:45;8.40;99.90
4556;DHT22;2290;48.674;9.018;2023-12-22T14:37:12;8.40;99.90
4556;DHT22;2290;48.674;9.018;2023-12-22T14:39:38;8.40;99.90
4556;DHT22;2290;48.674;9.018;2023-12-22T14:42:04;8.40;99.90
4556;DHT22;2290;48.674;9.018;2023-12-22T14:44:30;8.50;99.90
4556;DHT22;2290;48.674;9.018;2023-12-22T14:46:55;8.50;99.90
4556;DHT22;2290;48.674;9.018;2023-12-22T14:49:24;8.50;99.90
4556;DHT22;2290;48.674;9.018;2023-12-22T14:51:50;8.50;99.90
4556;DHT22;2290;48.674;9.018;2023-12-22T14:54:20;8.40;99.90
4556;DHT22;2290;48.674;9.018;2023-12-22T14:56:46;8.60;99.90
4556;DHT22;2290;48.674;9.018;2023-12-22T14:59:12;8.60;99.90
4556;DHT22;2290;48.674;9.018;2023-12-22T15:01:40;8.60;99.90
4556;DHT22;2290;48.674;9.018;2023-12-22T15:04:06;8.60;99.90
4556;DHT22;2290;48.674;9.018;2023-12-22T15:06:32;8.70;99.90
4556;DHT22;2290;48.674;9.018;2023-12-22T15:08:58;8.60;99.90
4556;DHT22;2290;48.674;9.018;2023-12-22T15:11:27;8.60;99.90
4556;DHT22;2290;48.674;9.018;2023-12-22T15:13:52;8.70;99.90
4556;DHT22;2290;48.674;9.018;2023-12-22T15:16:18;8.60;99.90
4556;DHT22;2290;48.674;9.018;2023-12-22T15:18:43;8.70;99.90
4556;DHT22;2290;48.674;9.018;2023-12-22T15:21:09;8.70;99.90
4556;DHT22;2290;48.674;9.018;2023-12-22T15:23:35;8.60;99.90
4556;DHT22;2290;48.674;9.018;2023-12-22T15:26:00;8.70;99.90
4556;DHT22;2290;48.674;9.018;2023-12-22T15:28:26;8.60;99.90
4556;DHT22;2290;48.674;9.018;2023-12-22T15:30:52;8.70;99.90
4556;DHT22;2290;48.674;9.018;2023-12-22T15:33:17;8.60;99.90
4556;DHT22;2290;48.674;9.018;2023-12-22T15:35:47;8.60;99.90
4556;DHT22;2290;48.674;9.018;2023-12-22T15:38:14;8.60;99.90
4556;DHT22;2290;48.674;9.018;2023-12-22T15:40:39;8.60;99.90
4556;DHT22;2290;48.674;9.018;2023-12-22T15:43:05;8.60;99.90
4556;DHT22;2290;48.674;9.018;2023-12-22T15:45:31;8.60;99.90
4556;DHT22;2290;48.674;9.018;2023-12-22T15:47:56;8.60;99.90
4556;DHT22;2290;48.674;9.018;2023-12-22T15:50:22;8.70;99.90
4556;DHT22;2290;48.674;9.018;2023-12-22T15:52:48;8.70;99.90
4556;DHT22;2290;48.674;9.018;2023-12-22T15:55:16;8.60;99.90
4556;DHT22;2290;48.674;9.018;2023-12-22T15:57:41;8.60;99.90
4556;DHT22;2290;48.674;9.018;2023-12-22T16:00:09;8.60;99.90
4556;DHT22;2290;48.674;9.018;2023-12-22T16:02:35;8.60;99.90
4556;DHT22;2290;48.674;9.018;2023-12-22T16:05:04;8.60;99.90
4556;DHT22;2290;48.674;9.018;2023-12-22T16:07:29;8.60;99.90
4556;DHT22;2290;48.674;9.018;2023-12-22T16:09:55;8.60;99.90
4556;DHT22;2290;48.674;9.018;2023-12-22T16:12:20;8.60;99.90
4556;DHT22;2290;48.674;9.018;2023-12-22T16:14:47;8.60;99.90
4556;DHT22;2290;48.674;9.018;2023-12-22T16:17:13;8.60;99.90
4556;DHT22;2290;48.674;9.018;2023-12-22T16:19:39;8.60;99.90
4556;DHT22;2290;48.674;9.018;2023-12-22T16:22:06;8.60;99.90
4556;DHT22;2290;48.674;9.018;2023-12-22T16:24:31;8.60;99.90